createdAt,value
2023-01-13T00:02:27.702Z,98465.97
2023-01-13T00:05:01.233Z,98460.83
2023-01-13T00:07:34.675Z,98456.38
2023-01-13T00:10:11.823Z,98456.77
2023-01-13T00:12:46.005Z,98449.19
2023-01-13T00:15:19.781Z,98444.88
2023-01-13T00:17:53.426Z,98435.91
2023-01-13T00:20:26.837Z,98436.13
2023-01-13T00:23:01.482Z,98436.59
2023-01-13T00:25:35.399Z,98435.66
2023-01-13T00:28:10.077Z,98435.05
2023-01-13T00:30:43.520Z,98439.60
2023-01-13T00:33:16.837Z,98442.84
2023-01-13T00:36:13.538Z,98445.44
2023-01-13T00:38:47.891Z,98443.85
2023-01-13T00:41:23.436Z,98449.37
2023-01-13T00:43:57.007Z,98448.26
2023-01-13T00:46:30.441Z,98447.34
2023-01-13T00:49:03.863Z,98451.88
2023-01-13T00:51:37.821Z,98455.02
2023-01-13T00:54:11.838Z,98448.45
2023-01-13T00:56:45.637Z,98441.91
2023-01-13T00:59:19.446Z,98444.15
2023-01-13T01:01:53.217Z,98444.70
2023-01-13T01:04:27.145Z,98440.61
2023-01-13T01:07:00.615Z,98442.47
2023-01-13T01:09:34.899Z,98441.34
2023-01-13T01:12:09.391Z,98436.20
2023-01-13T01:14:42.838Z,98435.83
2023-01-13T01:17:16.329Z,98432.09
2023-01-13T01:19:50.310Z,98431.21
2023-01-13T01:22:23.755Z,98423.60
2023-01-13T01:24:57.454Z,98421.61
2023-01-13T01:27:31.009Z,98425.24
2023-01-13T01:30:04.615Z,98423.85
2023-01-13T01:32:39.175Z,98425.77
2023-01-13T01:35:13.411Z,98418.94
2023-01-13T01:37:46.851Z,98415.77
2023-01-13T01:40:20.915Z,98408.44
2023-01-13T01:43:11.869Z,98402.69
2023-01-13T01:45:45.315Z,98399.77
2023-01-13T01:48:18.807Z,98395.45
2023-01-13T01:50:52.675Z,98394.96
2023-01-13T01:53:29.702Z,98395.25
2023-01-13T01:56:03.812Z,98389.73
2023-01-13T01:58:45.833Z,98383.05
2023-01-13T02:01:19.968Z,98377.77
2023-01-13T02:04:00.819Z,98377.45
2023-01-13T02:06:34.255Z,98378.79
2023-01-13T02:09:08.274Z,98374.45
2023-01-13T02:11:59.369Z,98385.27
2023-01-13T02:14:34.621Z,98382.03
2023-01-13T02:17:28.432Z,98376.57
2023-01-13T02:21:52.512Z,98369.66
2023-01-13T02:27:25.642Z,98360.09
2023-01-13T02:31:00.037Z,98354.06
2023-01-13T02:34:08.852Z,98352.45
2023-01-13T02:37:08.417Z,98354.13
2023-01-13T02:40:10.137Z,98349.08
2023-01-13T02:43:28.788Z,98341.98
2023-01-13T02:46:29.336Z,98342.74
2023-01-13T02:49:35.621Z,98335.66
2023-01-13T02:52:37.233Z,98335.27
2023-01-13T02:55:35.556Z,98337.57
2023-01-13T02:58:33.673Z,98339.39
2023-01-13T03:01:27.754Z,98332.17
2023-01-13T03:04:53.985Z,98331.96
2023-01-13T03:08:06.171Z,98333.02
2023-01-13T03:11:08.630Z,98326.11
2023-01-13T03:14:09.559Z,98323.64
2023-01-13T03:17:24.293Z,98325.42
2023-01-13T03:20:25.690Z,98321.58
2023-01-13T03:23:29.763Z,98312.77
2023-01-13T03:26:33.260Z,98309.37
2023-01-13T03:29:34.837Z,98311.13
2023-01-13T03:32:34.421Z,98308.35
2023-01-13T03:35:32.607Z,98309.40
2023-01-13T03:38:32.756Z,98304.11
2023-01-13T03:41:36.298Z,98299.83
2023-01-13T03:44:35.485Z,98301.20
2023-01-13T03:47:37.614Z,98301.27
2023-01-13T03:50:37.307Z,98299.79
2023-01-13T03:53:35.651Z,98296.17
2023-01-13T03:56:37.250Z,98298.20
2023-01-13T03:59:35.573Z,98301.17
2023-01-13T04:02:43.474Z,98302.85
2023-01-13T04:05:43.972Z,98299.45
2023-01-13T04:08:41.612Z,98300.61
2023-01-13T04:11:20.806Z,98297.49
2023-01-13T04:14:17.480Z,98294.35
2023-01-13T04:17:11.539Z,98293.13
2023-01-13T04:20:05.799Z,98293.66
2023-01-13T04:22:59.480Z,98291.92
2023-01-13T04:25:57.682Z,98298.48
2023-01-13T04:28:52.077Z,98303.73
2023-01-13T04:31:46.030Z,98298.20
2023-01-13T04:34:40.046Z,98301.83
2023-01-13T04:37:34.397Z,98305.21
2023-01-13T04:40:28.385Z,98311.00
2023-01-13T04:43:22.051Z,98306.50
2023-01-13T04:46:16.251Z,98297.55
2023-01-13T04:49:10.370Z,98292.70
2023-01-13T04:52:04.167Z,98293.02
2023-01-13T04:54:58.939Z,98290.88
2023-01-13T04:57:52.749Z,98290.80
2023-01-13T05:00:46.772Z,98291.64
2023-01-13T05:03:40.590Z,98297.06
2023-01-13T05:06:35.228Z,98294.34
2023-01-13T05:09:29.019Z,98294.70
2023-01-13T05:12:40.204Z,98298.11
2023-01-13T05:15:51.681Z,98292.10
2023-01-13T05:18:45.976Z,98296.17
2023-01-13T05:21:57.235Z,98299.63
2023-01-13T05:25:08.769Z,98301.92
2023-01-13T05:28:03.206Z,98306.52
2023-01-13T05:30:58.113Z,98303.36
2023-01-13T05:33:51.903Z,98299.33
2023-01-13T05:36:45.649Z,98305.69
2023-01-13T05:39:54.086Z,98307.66
2023-01-13T05:43:05.786Z,98306.09
2023-01-13T05:46:04.346Z,98305.70
2023-01-13T05:48:59.896Z,98301.06
2023-01-13T05:51:53.666Z,98303.14
2023-01-13T05:54:47.330Z,98292.29
2023-01-13T05:57:41.111Z,98294.18
2023-01-13T06:00:34.874Z,98287.66
2023-01-13T06:03:28.777Z,98294.98
2023-01-13T06:06:22.592Z,98295.12
2023-01-13T06:09:16.771Z,98296.13
2023-01-13T06:12:13.618Z,98297.05
2023-01-13T06:15:09.147Z,98303.89
2023-01-13T06:18:05.214Z,98310.51
2023-01-13T06:20:59.169Z,98315.50
2023-01-13T06:23:52.972Z,98311.70
2023-01-13T06:26:47.145Z,98313.56
2023-01-13T06:29:41.430Z,98318.20
2023-01-13T06:32:40.315Z,98314.53
2023-01-13T06:35:38.638Z,98317.39
2023-01-13T06:38:36.762Z,98317.32
2023-01-13T06:41:55.325Z,98315.04
2023-01-13T06:44:50.168Z,98312.49
2023-01-13T06:47:44.151Z,98317.27
2023-01-13T06:50:37.863Z,98316.83
2023-01-13T06:53:31.783Z,98311.79
2023-01-13T06:56:25.574Z,98307.99
2023-01-13T06:59:09.922Z,98303.52
2023-01-13T07:02:04.084Z,98309.14
2023-01-13T07:04:57.966Z,98310.39
2023-01-13T07:07:51.758Z,98308.23
2023-01-13T07:10:45.719Z,98309.94
2023-01-13T07:13:57.733Z,98313.70
2023-01-13T07:16:52.941Z,98311.43
2023-01-13T07:19:47.014Z,98306.80
2023-01-13T07:22:40.621Z,98310.55
2023-01-13T07:25:34.518Z,98314.70
2023-01-13T07:28:31.328Z,98316.89
2023-01-13T07:31:26.163Z,98311.98
2023-01-13T07:34:20.073Z,98312.12
2023-01-13T07:37:13.951Z,98317.96
2023-01-13T07:40:10.261Z,98328.18
2023-01-13T07:43:21.692Z,98330.24
2023-01-13T07:46:15.577Z,98328.08
2023-01-13T07:49:10.455Z,98321.64
2023-01-13T07:52:04.497Z,98324.38
2023-01-13T07:54:58.517Z,98325.48
2023-01-13T07:57:53.693Z,98327.48
2023-01-13T08:00:47.547Z,98323.02
2023-01-13T08:03:41.718Z,98319.88
2023-01-13T08:06:36.717Z,98319.27
2023-01-13T08:09:30.508Z,98317.50
2023-01-13T08:12:42.190Z,98320.38
2023-01-13T08:15:48.762Z,98325.65
2023-01-13T08:18:42.962Z,98328.95
2023-01-13T08:21:36.804Z,98329.73
2023-01-13T08:24:30.491Z,98331.02
2023-01-13T08:27:24.105Z,98332.00
2023-01-13T08:30:18.977Z,98335.64
2023-01-13T08:33:15.062Z,98335.86
2023-01-13T08:35:59.436Z,98329.61
2023-01-13T08:38:53.172Z,98331.23
2023-01-13T08:41:56.310Z,98336.30
2023-01-13T08:44:47.736Z,98339.88
2023-01-13T08:47:41.455Z,98342.20
2023-01-13T08:50:35.284Z,98348.52
2023-01-13T08:53:26.209Z,98344.34
2023-01-13T08:56:20.068Z,98341.48
2023-01-13T08:59:16.464Z,98339.92
2023-01-13T09:01:53.149Z,98344.02
2023-01-13T09:04:32.219Z,98340.50
2023-01-13T09:07:26.214Z,98340.55
2023-01-13T09:10:20.052Z,98333.90
2023-01-13T09:13:17.939Z,98336.29
2023-01-13T09:16:12.308Z,98335.73
2023-01-13T09:19:06.115Z,98335.91
2023-01-13T09:22:00.200Z,98341.48
2023-01-13T09:24:54.252Z,98342.35
2023-01-13T09:27:48.116Z,98343.96
2023-01-13T09:30:42.442Z,98338.59
2023-01-13T09:33:56.215Z,98332.81
2023-01-13T09:36:50.062Z,98324.29
2023-01-13T09:39:42.254Z,98323.64
2023-01-13T09:43:06.140Z,98320.34
2023-01-13T09:46:06.918Z,98317.42
2023-01-13T09:49:03.743Z,98308.95
2023-01-13T09:52:10.851Z,98313.54
2023-01-13T09:55:12.576Z,98313.77
2023-01-13T09:58:17.961Z,98311.94
2023-01-13T10:01:25.217Z,98307.36
2023-01-13T10:04:19.940Z,98296.70
2023-01-13T10:07:17.034Z,98297.33
2023-01-13T10:10:21.251Z,98296.41
2023-01-13T10:13:24.813Z,98295.71
2023-01-13T10:16:36.672Z,98286.77
2023-01-13T10:19:37.344Z,98283.24
2023-01-13T10:22:48.554Z,98281.94
2023-01-13T10:25:59.045Z,98282.81
2023-01-13T10:28:56.141Z,98273.48
2023-01-13T10:31:50.310Z,98274.52
2023-01-13T10:34:56.689Z,98268.94
2023-01-13T10:38:00.921Z,98262.45
2023-01-13T10:40:57.093Z,98265.84
2023-01-13T10:44:04.476Z,98262.61
2023-01-13T10:48:18.682Z,98261.35
2023-01-13T10:51:24.358Z,98261.05
2023-01-13T10:54:56.685Z,98257.84
2023-01-13T10:57:46.282Z,98256.11
2023-01-13T11:00:36.071Z,98247.45
2023-01-13T11:03:27.263Z,98242.98
2023-01-13T11:06:24.794Z,98242.45
2023-01-13T11:09:21.772Z,98241.38
2023-01-13T11:12:31.032Z,98235.26
2023-01-13T11:15:29.690Z,98232.34
2023-01-13T11:18:28.418Z,98230.33
2023-01-13T11:21:25.943Z,98235.30
2023-01-13T11:24:15.074Z,98233.98
2023-01-13T11:26:59.450Z,98242.38
2023-01-13T11:30:08.993Z,98238.79
2023-01-13T11:33:19.997Z,98242.46
2023-01-13T11:36:20.516Z,98234.08
2023-01-13T11:39:22.286Z,98237.78
2023-01-13T11:42:37.754Z,98235.27
2023-01-13T11:45:36.992Z,98240.11
2023-01-13T11:48:31.314Z,98233.27
2023-01-13T11:51:33.204Z,98232.33
2023-01-13T11:54:43.055Z,98225.92
2023-01-13T11:58:15.630Z,98226.27
2023-01-13T12:01:20.936Z,98222.47
2023-01-13T12:04:27.003Z,98217.54
2023-01-13T12:07:27.081Z,98214.23
2023-01-13T12:10:47.063Z,98210.52
2023-01-13T12:13:51.914Z,98206.13
2023-01-13T12:16:48.817Z,98199.48
2023-01-13T12:19:38.583Z,98198.73
2023-01-13T12:22:33.418Z,98200.63
2023-01-13T12:25:33.897Z,98201.54
2023-01-13T12:28:30.437Z,98203.21
2023-01-13T12:31:21.895Z,98201.91
2023-01-13T12:34:41.795Z,98204.13
2023-01-13T12:37:44.033Z,98209.82
2023-01-13T12:40:55.766Z,98204.25
2023-01-13T12:44:07.230Z,98199.69
2023-01-13T12:46:59.465Z,98204.20
2023-01-13T12:49:34.644Z,98209.59
2023-01-13T12:52:24.461Z,98216.44
2023-01-13T12:55:20.924Z,98213.98
2023-01-13T12:58:18.188Z,98211.98
2023-01-13T13:01:14.933Z,98214.30
2023-01-13T13:04:11.964Z,98210.45
2023-01-13T13:07:11.888Z,98215.26
2023-01-13T13:10:05.972Z,98219.52
2023-01-13T13:13:17.829Z,98222.41
2023-01-13T13:16:46.851Z,98226.21
2023-01-13T13:19:44.788Z,98234.95
2023-01-13T13:22:50.692Z,98237.41
2023-01-13T13:25:59.664Z,98234.72
2023-01-13T13:29:06.043Z,98236.86
2023-01-13T13:32:35.582Z,98236.34
2023-01-13T13:35:42.575Z,98233.54
2023-01-13T13:39:10.904Z,98231.95
2023-01-13T13:42:31.547Z,98227.65
2023-01-13T13:45:43.585Z,98227.73
2023-01-13T13:48:33.789Z,98236.66
2023-01-13T13:51:28.135Z,98235.21
2023-01-13T13:54:21.702Z,98241.30
2023-01-13T13:57:19.848Z,98243.30
2023-01-13T13:59:57.407Z,98245.61
2023-01-13T14:02:52.525Z,98239.55
2023-01-13T14:05:57.655Z,98236.37
2023-01-13T14:08:50.557Z,98232.84
2023-01-13T14:11:42.322Z,98233.28
2023-01-13T14:14:31.763Z,98229.73
2023-01-13T14:17:25.841Z,98232.65
2023-01-13T14:20:18.207Z,98234.99
2023-01-13T14:23:15.449Z,98234.56
2023-01-13T14:26:12.194Z,98234.29
2023-01-13T14:29:03.107Z,98235.33
2023-01-13T14:31:54.890Z,98237.95
2023-01-13T14:34:44.545Z,98235.11
2023-01-13T14:37:39.236Z,98241.46
2023-01-13T14:40:46.137Z,98243.80
2023-01-13T14:43:55.999Z,98246.35
2023-01-13T14:46:47.231Z,98247.65
2023-01-13T14:49:40.777Z,98252.64
2023-01-13T14:52:36.031Z,98255.73
2023-01-13T14:55:30.885Z,98258.98
2023-01-13T14:58:28.271Z,98258.81
2023-01-13T15:01:49.332Z,98258.83
2023-01-13T15:04:39.001Z,98260.12
2023-01-13T15:07:25.754Z,98265.98
2023-01-13T15:10:17.899Z,98265.56
2023-01-13T15:13:22.414Z,98267.84
2023-01-13T15:16:22.177Z,98263.98
2023-01-13T15:19:11.807Z,98261.02
2023-01-13T15:22:02.382Z,98265.14
2023-01-13T15:24:51.940Z,98265.89
2023-01-13T15:27:33.281Z,98271.93
2023-01-13T15:30:26.454Z,98275.84
2023-01-13T15:33:00.180Z,98277.63
2023-01-13T15:35:53.762Z,98275.39
2023-01-13T15:38:43.230Z,98272.52
2023-01-13T15:41:51.138Z,98272.77
2023-01-13T15:44:49.210Z,98274.10
2023-01-13T15:47:24.802Z,98274.85
2023-01-13T15:50:17.578Z,98272.08
2023-01-13T15:53:07.238Z,98277.50
2023-01-13T15:55:59.272Z,98279.69
2023-01-13T15:58:48.730Z,98284.06
2023-01-13T16:01:38.442Z,98286.02
2023-01-13T16:04:28.145Z,98294.91
2023-01-13T16:07:19.822Z,98296.58
2023-01-13T16:10:18.860Z,98300.37
2023-01-13T16:13:08.578Z,98306.30
2023-01-13T16:16:00.067Z,98307.43
2023-01-13T16:18:50.784Z,98313.96
2023-01-13T16:21:40.215Z,98309.60
2023-01-13T16:24:09.657Z,98304.16
2023-01-13T16:26:59.242Z,98306.71
2023-01-13T16:29:52.198Z,98313.80
2023-01-13T16:32:21.702Z,98311.28
2023-01-13T16:35:11.578Z,98311.31
2023-01-13T16:38:01.170Z,98313.06
2023-01-13T16:40:51.588Z,98316.85
2023-01-13T16:46:26.386Z,98315.73
2023-01-13T16:49:20.609Z,98310.29
2023-01-13T16:52:14.411Z,98313.97
2023-01-13T16:55:10.038Z,98319.38
2023-01-13T16:58:02.395Z,98320.91
2023-01-13T17:00:54.758Z,98323.61
2023-01-13T17:03:51.365Z,98324.73
2023-01-13T17:06:53.143Z,98322.52
2023-01-13T17:09:48.899Z,98312.06
2023-01-13T17:12:43.231Z,98314.91
2023-01-13T17:15:37.838Z,98314.81
2023-01-13T17:18:32.520Z,98313.30
2023-01-13T17:21:26.719Z,98313.73
2023-01-13T17:24:20.893Z,98318.55
2023-01-13T17:27:17.355Z,98319.89
2023-01-13T17:30:15.162Z,98318.41
2023-01-13T17:33:09.368Z,98317.84
2023-01-13T17:36:08.326Z,98318.28
2023-01-13T17:39:02.364Z,98321.95
2023-01-13T17:42:32.175Z,98319.74
2023-01-13T17:48:10.460Z,98332.59
2023-01-13T17:51:06.630Z,98333.90
2023-01-13T17:56:13.863Z,98329.19
2023-01-13T18:01:50.508Z,98326.55
2023-01-13T18:04:45.868Z,98333.32
2023-01-13T18:07:39.596Z,98338.94
2023-01-13T18:10:33.495Z,98344.73
2023-01-13T18:13:27.725Z,98347.04
2023-01-13T18:16:22.613Z,98358.55
2023-01-13T18:19:36.377Z,98357.43
2023-01-13T18:22:47.662Z,98361.85
2023-01-13T18:26:01.098Z,98369.17
2023-01-13T18:28:54.916Z,98368.45
2023-01-13T18:31:48.665Z,98370.02
2023-01-13T18:34:43.779Z,98373.27
2023-01-13T18:37:40.437Z,98375.99
2023-01-13T18:40:34.115Z,98383.39
2023-01-13T18:43:27.903Z,98388.38
2023-01-13T18:46:22.787Z,98395.70
2023-01-13T18:49:16.642Z,98397.55
2023-01-13T18:52:10.619Z,98403.25
2023-01-13T18:55:04.694Z,98402.84
2023-01-13T18:57:59.075Z,98401.83
2023-01-13T19:01:01.059Z,98405.64
2023-01-13T19:04:00.122Z,98406.46
2023-01-13T19:07:00.457Z,98411.48
2023-01-13T19:09:56.395Z,98407.80
2023-01-13T19:12:50.087Z,98414.27
2023-01-13T19:15:43.844Z,98419.21
2023-01-13T19:18:39.279Z,98419.42
2023-01-13T19:21:33.244Z,98428.23
2023-01-13T19:24:27.186Z,98426.27
2023-01-13T19:27:22.825Z,98426.72
2023-01-13T19:30:18.469Z,98433.89
2023-01-13T19:33:12.284Z,98435.42
2023-01-13T19:36:07.647Z,98428.27
2023-01-13T19:39:01.506Z,98435.23
2023-01-13T19:42:13.085Z,98438.41
2023-01-13T19:45:13.427Z,98439.73
2023-01-13T19:48:08.560Z,98447.64
2023-01-13T19:51:05.907Z,98451.57
2023-01-13T19:54:00.682Z,98457.83
2023-01-13T19:56:54.601Z,98457.25
2023-01-13T19:59:48.311Z,98466.45
2023-01-13T20:02:48.016Z,98468.73
2023-01-13T20:05:43.104Z,98467.27
2023-01-13T20:08:36.766Z,98468.79
2023-01-13T20:11:33.541Z,98468.22
2023-01-13T20:14:27.944Z,98471.95
2023-01-13T20:17:23.187Z,98467.45
2023-01-13T20:20:18.521Z,98463.94
2023-01-13T20:23:13.203Z,98462.28
2023-01-13T20:26:10.921Z,98470.34
2023-01-13T20:29:05.015Z,98476.27
2023-01-13T20:31:59.681Z,98484.00
2023-01-13T20:34:38.940Z,98479.17
2023-01-13T20:37:32.893Z,98475.67
2023-01-13T20:40:26.772Z,98483.98
2023-01-13T20:43:20.462Z,98485.44
2023-01-13T20:46:14.316Z,98488.51
2023-01-13T20:49:10.556Z,98492.98
2023-01-13T20:52:09.289Z,98493.77
2023-01-13T20:55:03.116Z,98494.71
2023-01-13T20:57:56.849Z,98499.61
2023-01-13T21:00:51.019Z,98505.80
2023-01-13T21:03:45.058Z,98507.19
2023-01-13T21:06:39.044Z,98510.52
2023-01-13T21:09:33.256Z,98515.34
2023-01-13T21:12:44.503Z,98517.39
2023-01-13T21:15:38.482Z,98518.11
2023-01-13T21:19:06.291Z,98523.23
2023-01-13T21:22:00.153Z,98529.46
2023-01-13T21:24:53.997Z,98527.09
2023-01-13T21:27:47.623Z,98531.05
2023-01-13T21:30:41.397Z,98530.58
2023-01-13T21:33:35.425Z,98536.26
2023-01-13T21:36:30.695Z,98535.45
2023-01-13T21:39:24.580Z,98537.71
2023-01-13T21:42:36.477Z,98539.93
2023-01-13T21:45:49.614Z,98544.27
2023-01-13T21:48:43.729Z,98549.48
2023-01-13T21:51:38.021Z,98552.91
2023-01-13T21:54:31.997Z,98554.55
2023-01-13T21:57:27.329Z,98555.69
2023-01-13T22:00:24.852Z,98554.63
2023-01-13T22:03:19.530Z,98559.36
2023-01-13T22:06:13.291Z,98561.77
2023-01-13T22:09:07.441Z,98560.55
2023-01-13T22:12:01.509Z,98555.81
2023-01-13T22:14:55.637Z,98552.13
2023-01-13T22:17:53.297Z,98555.61
2023-01-13T22:20:47.230Z,98558.27
2023-01-13T22:23:40.991Z,98559.61
2023-01-13T22:26:34.954Z,98561.52
2023-01-13T22:29:28.755Z,98561.79
2023-01-13T22:32:23.650Z,98567.02
2023-01-13T22:35:19.132Z,98569.11
2023-01-13T22:38:13.095Z,98568.75
2023-01-13T22:41:09.877Z,98568.27
2023-01-13T22:44:03.709Z,98566.83
2023-01-13T22:46:57.430Z,98570.98
2023-01-13T22:49:51.324Z,98571.58
2023-01-13T22:52:45.052Z,98577.33
2023-01-13T22:55:38.715Z,98577.59
2023-01-13T22:58:32.707Z,98577.42
2023-01-13T23:01:29.733Z,98579.27
2023-01-13T23:04:23.588Z,98583.52
2023-01-13T23:07:17.565Z,98589.82
2023-01-13T23:10:13.882Z,98587.69
2023-01-13T23:13:07.665Z,98580.75
2023-01-13T23:16:05.933Z,98576.77
2023-01-13T23:19:02.365Z,98575.11
2023-01-13T23:21:56.058Z,98581.33
2023-01-13T23:24:49.932Z,98587.07
2023-01-13T23:27:43.663Z,98592.17
2023-01-13T23:30:41.727Z,98596.52
2023-01-13T23:33:35.594Z,98596.98
2023-01-13T23:36:31.262Z,98603.31
2023-01-13T23:39:25.342Z,98603.84
2023-01-13T23:42:19.082Z,98608.70
2023-01-13T23:45:15.283Z,98606.86
2023-01-13T23:48:09.590Z,98608.69
2023-01-13T23:51:05.470Z,98606.78
2023-01-13T23:53:59.980Z,98608.63
2023-01-13T23:56:54.951Z,98608.85
2023-01-13T23:59:48.854Z,98612.52
